Time;durP1;ratioP1;P1;durP2;ratioP2;P2;SDS_P1;SDS_P2;PMS_P1;PMS_P2;Temp;Humidity;BMP_temperature;BMP_pressure;BME280_temperature;BME280_humidity;BME280_pressure;Samples;Min_cycle;Max_cycle;Signal;HPM_P1;HPM_P2
2021/04/27 00:02:06;;;;;;;43.85;23.42;;;;;;;;;;4976101;28;20050;-46
2021/04/27 00:04:32;;;;;;;26.25;16.08;;;;;;;;;;4976217;28;20026;-46
2021/04/27 00:06:58;;;;;;;13.50;9.45;;;;;;;;;;4976039;28;20039;-46
2021/04/27 00:09:24;;;;;;;37.38;22.45;;;;;;;;;;4975965;28;20122;-46
2021/04/27 00:11:50;;;;;;;27.35;15.77;;;;;;;;;;4975912;28;20019;-46
2021/04/27 00:14:16;;;;;;;27.50;17.20;;;;;;;;;;4975744;28;20510;-46
2021/04/27 00:16:42;;;;;;;31.08;17.23;;;;;;;;;;4975962;28;20089;-46
2021/04/27 00:19:10;;;;;;;82.75;36.85;;;;;;;;;;4975655;28;20033;-45
2021/04/27 00:21:36;;;;;;;19.48;12.27;;;;;;;;;;4976024;28;20154;-45
2021/04/27 00:24:02;;;;;;;21.40;13.05;;;;;;;;;;4975551;28;20472;-46
2021/04/27 00:26:28;;;;;;;48.60;29.40;;;;;;;;;;4975723;28;20505;-46
2021/04/27 00:28:54;;;;;;;70.88;40.05;;;;;;;;;;4975642;28;20395;-46
2021/04/27 00:31:20;;;;;;;25.15;15.32;;;;;;;;;;4975567;28;20027;-46
2021/04/27 00:33:46;;;;;;;33.55;19.45;;;;;;;;;;4975441;28;20034;-46
2021/04/27 00:36:12;;;;;;;43.22;25.50;;;;;;;;;;4975497;28;20460;-45
2021/04/27 00:38:38;;;;;;;12.02;8.50;;;;;;;;;;4975421;28;20035;-46
2021/04/27 00:41:05;;;;;;;27.38;17.25;;;;;;;;;;4975340;28;20023;-46
2021/04/27 00:43:31;;;;;;;45.40;24.90;;;;;;;;;;4975247;28;20046;-45
2021/04/27 00:45:57;;;;;;;61.88;31.88;;;;;;;;;;4975105;28;20472;-45
2021/04/27 00:48:23;;;;;;;30.23;17.35;;;;;;;;;;4975170;28;20114;-45
2021/04/27 00:50:52;;;;;;;12.27;8.93;;;;;;;;;;4975334;28;20037;-46
2021/04/27 00:53:18;;;;;;;39.15;22.35;;;;;;;;;;4975159;28;20155;-46
2021/04/27 00:55:44;;;;;;;12.77;9.27;;;;;;;;;;4974971;28;20039;-45
2021/04/27 00:58:10;;;;;;;32.67;18.48;;;;;;;;;;4975165;28;20383;-46
2021/04/27 01:00:38;;;;;;;11.25;6.97;;;;;;;;;;4975063;28;20057;-47
2021/04/27 01:03:04;;;;;;;12.07;8.60;;;;;;;;;;4975062;28;20065;-46
2021/04/27 01:05:31;;;;;;;13.32;10.05;;;;;;;;;;4975068;28;20023;-46
2021/04/27 01:08:17;;;;;;;25.30;15.50;;;;;;;;;;4973966;28;20109;-46
2021/04/27 01:10:52;;;;;;;23.65;14.35;;;;;;;;;;4974854;28;20034;-46
2021/04/27 01:13:41;;;;;;;26.25;17.40;;;;;;;;;;4974886;28;20109;-46
2021/04/27 01:16:11;;;;;;;23.30;13.73;;;;;;;;;;4957171;28;20384;-46
2021/04/27 01:18:40;;;;;;;13.10;9.30;;;;;;;;;;4974800;28;20023;-45
2021/04/27 01:21:07;;;;;;;20.48;11.63;;;;;;;;;;4974806;28;20454;-45
2021/04/27 01:23:47;;;;;;;29.00;16.20;;;;;;;;;;4974633;28;20027;-46
2021/04/27 01:26:14;;;;;;;14.98;9.90;;;;;;;;;;4974441;28;20085;-47
2021/04/27 01:28:43;;;;;;;16.70;11.00;;;;;;;;;;4974540;28;20061;-45
2021/04/27 01:31:09;;;;;;;12.15;9.30;;;;;;;;;;4974669;28;20525;-46
2021/04/27 01:33:38;;;;;;;11.68;8.27;;;;;;;;;;4974467;28;20037;-45
2021/04/27 01:36:04;;;;;;;11.35;7.68;;;;;;;;;;4974614;28;20041;-45
2021/04/27 01:38:31;;;;;;;12.57;8.05;;;;;;;;;;4974552;28;20055;-45
2021/04/27 01:40:57;;;;;;;11.05;8.25;;;;;;;;;;4974385;28;20546;-46
2021/04/27 01:43:24;;;;;;;10.27;7.80;;;;;;;;;;4974745;28;20037;-45
2021/04/27 01:46:01;;;;;;;13.23;7.97;;;;;;;;;;4974545;28;20472;-45
2021/04/27 01:48:27;;;;;;;12.25;8.38;;;;;;;;;;4974418;28;20554;-46
2021/04/27 01:50:54;;;;;;;17.08;11.68;;;;;;;;;;4974614;28;20073;-46
2021/04/27 01:53:20;;;;;;;11.65;7.82;;;;;;;;;;4974398;28;20066;-46
2021/04/27 01:55:46;;;;;;;12.32;8.60;;;;;;;;;;4974169;28;20063;-46
2021/04/27 01:58:13;;;;;;;17.58;10.23;;;;;;;;;;4974478;28;20395;-46
2021/04/27 02:00:39;;;;;;;17.65;11.00;;;;;;;;;;4974342;28;20031;-46
2021/04/27 02:03:05;;;;;;;18.20;11.48;;;;;;;;;;4974309;28;20066;-46
2021/04/27 02:05:31;;;;;;;15.55;10.10;;;;;;;;;;4957047;28;20420;-47
2021/04/27 02:07:57;;;;;;;12.57;9.27;;;;;;;;;;4974204;28;20150;-46
2021/04/27 02:10:24;;;;;;;13.27;9.65;;;;;;;;;;4974197;28;20496;-46
2021/04/27 02:12:54;;;;;;;15.07;8.68;;;;;;;;;;4974409;28;20558;-46
2021/04/27 02:15:22;;;;;;;13.75;8.63;;;;;;;;;;4974258;28;20039;-46
2021/04/27 02:17:48;;;;;;;11.80;9.00;;;;;;;;;;4974196;28;20067;-46
2021/04/27 02:20:15;;;;;;;16.40;10.30;;;;;;;;;;4976322;28;20039;-45
2021/04/27 02:22:42;;;;;;;14.00;9.10;;;;;;;;;;4978048;28;20023;-46
2021/04/27 02:25:10;;;;;;;13.60;8.52;;;;;;;;;;4977987;28;20023;-46
2021/04/27 02:27:36;;;;;;;13.70;8.70;;;;;;;;;;4978002;28;20386;-46
2021/04/27 02:30:06;;;;;;;13.30;9.23;;;;;;;;;;4977788;28;20027;-46
2021/04/27 02:32:32;;;;;;;10.52;8.63;;;;;;;;;;4977988;28;20463;-47
2021/04/27 02:34:59;;;;;;;11.82;8.77;;;;;;;;;;4977876;28;20077;-47
2021/04/27 02:37:25;;;;;;;10.95;8.80;;;;;;;;;;4977689;28;20086;-47
2021/04/27 02:39:53;;;;;;;13.35;10.38;;;;;;;;;;4977459;28;20372;-47
2021/04/27 02:42:19;;;;;;;20.10;10.82;;;;;;;;;;4960288;28;20030;-47
2021/04/27 02:44:45;;;;;;;20.75;12.60;;;;;;;;;;4977718;28;20054;-47
2021/04/27 02:47:11;;;;;;;12.57;9.32;;;;;;;;;;4977483;28;20065;-47
2021/04/27 02:49:37;;;;;;;13.70;9.70;;;;;;;;;;4977698;28;20539;-47
2021/04/27 02:52:06;;;;;;;15.85;9.23;;;;;;;;;;4977528;28;20027;-47
2021/04/27 02:54:32;;;;;;;14.15;10.13;;;;;;;;;;4977271;28;20030;-47
2021/04/27 02:56:58;;;;;;;14.88;9.35;;;;;;;;;;4977458;28;20022;-47
2021/04/27 02:59:24;;;;;;;12.35;8.95;;;;;;;;;;4977502;28;20093;-47
2021/04/27 03:01:50;;;;;;;14.43;9.73;;;;;;;;;;4977467;28;20023;-47
2021/04/27 03:04:18;;;;;;;15.32;9.80;;;;;;;;;;4977521;28;20027;-47
2021/04/27 03:06:44;;;;;;;14.13;8.65;;;;;;;;;;4977182;28;20503;-47
2021/04/27 03:09:11;;;;;;;11.23;8.80;;;;;;;;;;4977299;28;20037;-47
2021/04/27 03:11:37;;;;;;;10.80;8.50;;;;;;;;;;4977006;28;20029;-47
2021/04/27 03:14:05;;;;;;;12.65;8.82;;;;;;;;;;4977050;28;20033;-47
2021/04/27 03:16:31;;;;;;;11.63;8.70;;;;;;;;;;4977015;28;20023;-47
2021/04/27 03:18:57;;;;;;;11.95;8.98;;;;;;;;;;4977156;28;20063;-47
2021/04/27 03:21:23;;;;;;;14.57;10.35;;;;;;;;;;4977108;28;20480;-47
2021/04/27 03:23:50;;;;;;;10.85;9.55;;;;;;;;;;4976803;28;20118;-47
2021/04/27 03:26:16;;;;;;;12.48;8.93;;;;;;;;;;4976926;28;20031;-47
2021/04/27 03:28:42;;;;;;;14.02;10.90;;;;;;;;;;4976952;28;20106;-47
2021/04/27 03:31:08;;;;;;;14.60;9.98;;;;;;;;;;4975876;28;20105;-47
2021/04/27 03:33:35;;;;;;;11.95;9.85;;;;;;;;;;4976933;28;20029;-47
2021/04/27 03:36:01;;;;;;;14.27;9.60;;;;;;;;;;4976715;28;20035;-47
2021/04/27 03:38:27;;;;;;;14.10;10.68;;;;;;;;;;4976815;28;20431;-47
2021/04/27 03:40:54;;;;;;;14.07;10.20;;;;;;;;;;4976578;28;20019;-45
2021/04/27 03:43:20;;;;;;;16.52;10.25;;;;;;;;;;4976458;28;20023;-47
2021/04/27 03:45:46;;;;;;;13.88;11.23;;;;;;;;;;4976649;28;20031;-47
2021/04/27 03:48:14;;;;;;;14.75;10.55;;;;;;;;;;4976382;28;20030;-47
2021/04/27 03:50:40;;;;;;;18.65;11.27;;;;;;;;;;4976452;28;20058;-46
2021/04/27 03:53:06;;;;;;;16.35;11.73;;;;;;;;;;4976590;28;20034;-46
2021/04/27 03:55:33;;;;;;;12.48;10.48;;;;;;;;;;4976154;28;20031;-46
2021/04/27 03:57:59;;;;;;;14.35;10.70;;;;;;;;;;4976449;28;20023;-46
2021/04/27 04:00:25;;;;;;;16.27;10.05;;;;;;;;;;4959127;28;20123;-46
2021/04/27 04:02:51;;;;;;;16.77;10.40;;;;;;;;;;4976190;28;20054;-46
2021/04/27 04:05:17;;;;;;;13.70;10.43;;;;;;;;;;4976235;28;20022;-46
2021/04/27 04:07:43;;;;;;;14.63;9.65;;;;;;;;;;4975902;28;20058;-46
2021/04/27 04:10:11;;;;;;;13.93;10.40;;;;;;;;;;4976121;28;20023;-46
2021/04/27 04:12:38;;;;;;;11.57;9.45;;;;;;;;;;4975952;28;20023;-46
2021/04/27 04:15:10;;;;;;;16.67;10.57;;;;;;;;;;4975890;28;20078;-47
2021/04/27 04:17:37;;;;;;;14.02;9.95;;;;;;;;;;4976016;28;20027;-46
2021/04/27 04:20:08;;;;;;;11.77;9.52;;;;;;;;;;4975829;28;20086;-46
2021/04/27 04:22:34;;;;;;;11.95;9.82;;;;;;;;;;4975978;28;20430;-46
2021/04/27 04:25:00;;;;;;;12.27;9.48;;;;;;;;;;4976038;28;20034;-46
2021/04/27 04:27:27;;;;;;;13.40;9.02;;;;;;;;;;4976060;28;20050;-47
2021/04/27 04:29:53;;;;;;;13.82;10.02;;;;;;;;;;4975993;28;20483;-47
2021/04/27 04:32:19;;;;;;;15.43;9.52;;;;;;;;;;4975847;28;20077;-46
2021/04/27 04:34:47;;;;;;;13.50;9.40;;;;;;;;;;4975612;28;20475;-47
2021/04/27 04:37:13;;;;;;;13.30;9.63;;;;;;;;;;4975699;28;20109;-46
2021/04/27 04:39:39;;;;;;;14.63;9.75;;;;;;;;;;4958202;28;20119;-47
2021/04/27 04:42:06;;;;;;;19.38;9.93;;;;;;;;;;4975130;28;20058;-47
2021/04/27 04:44:32;;;;;;;15.63;10.60;;;;;;;;;;4975571;28;20062;-47
2021/04/27 04:46:58;;;;;;;16.23;10.50;;;;;;;;;;4975402;28;20134;-47
2021/04/27 04:49:25;;;;;;;15.57;10.15;;;;;;;;;;4975258;28;20475;-46
2021/04/27 04:51:54;;;;;;;13.13;9.55;;;;;;;;;;4975422;28;20037;-47
2021/04/27 04:54:20;;;;;;;16.13;9.77;;;;;;;;;;4975144;28;20095;-47
2021/04/27 04:56:47;;;;;;;14.05;11.07;;;;;;;;;;4975138;28;20510;-46
2021/04/27 04:59:13;;;;;;;16.33;11.88;;;;;;;;;;4975088;28;20059;-47
2021/04/27 05:01:40;;;;;;;19.90;13.23;;;;;;;;;;4975224;28;20030;-47
2021/04/27 05:04:06;;;;;;;15.52;12.27;;;;;;;;;;4975103;28;20058;-47
2021/04/27 05:06:40;;;;;;;15.70;11.77;;;;;;;;;;4975006;28;20051;-47
2021/04/27 05:09:07;;;;;;;18.77;12.57;;;;;;;;;;4975154;28;20357;-47
2021/04/27 05:11:33;;;;;;;16.50;13.05;;;;;;;;;;4974999;28;20103;-47
2021/04/27 05:14:00;;;;;;;17.48;12.15;;;;;;;;;;4974759;28;20030;-47
2021/04/27 05:16:26;;;;;;;31.88;21.75;;;;;;;;;;4974749;28;20033;-46
2021/04/27 05:18:53;;;;;;;26.60;17.50;;;;;;;;;;4974992;28;20019;-46
2021/04/27 05:21:19;;;;;;;32.88;20.20;;;;;;;;;;4974601;28;20026;-49
2021/04/27 05:23:45;;;;;;;30.25;18.45;;;;;;;;;;4974915;28;20086;-49
2021/04/27 05:26:13;;;;;;;31.13;18.08;;;;;;;;;;4974787;28;20037;-47
2021/04/27 05:28:40;;;;;;;26.70;17.08;;;;;;;;;;4974791;28;20050;-47
2021/04/27 05:31:06;;;;;;;30.52;19.80;;;;;;;;;;4974642;28;20018;-47
2021/04/27 05:33:33;;;;;;;29.05;19.90;;;;;;;;;;4974549;28;20056;-46
2021/04/27 05:35:59;;;;;;;21.27;15.38;;;;;;;;;;4974605;28;20081;-46
2021/04/27 05:38:25;;;;;;;19.15;13.90;;;;;;;;;;4974656;28;20029;-46
2021/04/27 05:40:51;;;;;;;18.33;11.88;;;;;;;;;;4974763;28;20379;-47
2021/04/27 05:43:17;;;;;;;18.33;13.43;;;;;;;;;;4974615;28;20033;-48
2021/04/27 05:45:44;;;;;;;21.77;14.90;;;;;;;;;;4974434;28;20031;-47
2021/04/27 05:48:10;;;;;;;23.40;15.98;;;;;;;;;;4974328;28;20545;-47
2021/04/27 05:50:37;;;;;;;23.58;16.17;;;;;;;;;;4974287;28;20035;-48
2021/04/27 05:53:03;;;;;;;21.50;15.45;;;;;;;;;;4974432;28;20030;-47
2021/04/27 05:55:29;;;;;;;24.70;15.00;;;;;;;;;;4976922;28;20062;-47
2021/04/27 05:57:56;;;;;;;24.92;16.92;;;;;;;;;;4978360;28;20135;-48
2021/04/27 06:00:23;;;;;;;25.70;17.10;;;;;;;;;;4978093;28;20027;-47
2021/04/27 06:02:49;;;;;;;24.00;16.27;;;;;;;;;;4978265;28;20029;-47
2021/04/27 06:05:16;;;;;;;21.30;14.18;;;;;;;;;;4978320;28;20499;-47
2021/04/27 06:07:42;;;;;;;20.55;15.02;;;;;;;;;;4978116;28;20049;-47
2021/04/27 06:10:11;;;;;;;16.50;12.10;;;;;;;;;;4978434;28;20102;-47
2021/04/27 06:12:37;;;;;;;19.67;11.85;;;;;;;;;;4978297;28;20407;-47
2021/04/27 06:15:04;;;;;;;19.15;13.90;;;;;;;;;;4978302;28;20085;-46
2021/04/27 06:17:31;;;;;;;17.40;13.73;;;;;;;;;;4978003;28;20027;-46
2021/04/27 06:19:57;;;;;;;21.60;13.63;;;;;;;;;;4977984;28;20042;-46
2021/04/27 06:22:23;;;;;;;19.23;14.32;;;;;;;;;;4977988;28;20019;-46
2021/04/27 06:24:50;;;;;;;19.92;13.70;;;;;;;;;;4977824;28;20062;-48
2021/04/27 06:27:16;;;;;;;16.52;12.65;;;;;;;;;;4977919;28;20046;-47
2021/04/27 06:29:42;;;;;;;25.27;13.25;;;;;;;;;;4977922;28;20037;-47
2021/04/27 06:32:08;;;;;;;34.20;20.65;;;;;;;;;;4978023;28;20082;-47
2021/04/27 06:34:36;;;;;;;30.13;18.85;;;;;;;;;;4977643;28;20035;-47
2021/04/27 06:37:02;;;;;;;25.55;17.05;;;;;;;;;;4977711;28;20027;-48
2021/04/27 06:39:28;;;;;;;30.83;21.08;;;;;;;;;;4978070;28;20479;-46
2021/04/27 06:41:54;;;;;;;25.35;18.02;;;;;;;;;;4977703;28;20026;-46
2021/04/27 06:44:20;;;;;;;23.88;16.23;;;;;;;;;;4977534;28;20061;-46
2021/04/27 06:46:46;;;;;;;21.05;14.70;;;;;;;;;;4977490;28;20475;-48
2021/04/27 06:49:12;;;;;;;24.00;17.42;;;;;;;;;;4977694;28;20027;-46
2021/04/27 06:51:39;;;;;;;28.35;17.73;;;;;;;;;;4977605;28;20026;-47
2021/04/27 06:54:05;;;;;;;24.38;17.88;;;;;;;;;;4977516;28;20439;-46
2021/04/27 06:56:31;;;;;;;26.33;17.25;;;;;;;;;;4977322;28;20034;-46
2021/04/27 06:58:57;;;;;;;32.13;20.50;;;;;;;;;;4977402;28;20106;-46
2021/04/27 07:01:23;;;;;;;55.45;32.90;;;;;;;;;;4977226;28;20026;-46
2021/04/27 07:03:49;;;;;;;29.70;18.02;;;;;;;;;;4977395;28;20022;-46
2021/04/27 07:06:15;;;;;;;22.70;13.85;;;;;;;;;;4976961;28;20189;-50
2021/04/27 07:08:42;;;;;;;23.00;14.80;;;;;;;;;;4977089;28;20027;-46
2021/04/27 07:11:09;;;;;;;44.95;25.60;;;;;;;;;;4977222;28;20443;-46
2021/04/27 07:13:35;;;;;;;28.20;18.58;;;;;;;;;;4977216;28;20479;-46
2021/04/27 07:16:02;;;;;;;26.38;16.17;;;;;;;;;;4976791;28;20085;-45
2021/04/27 07:18:28;;;;;;;30.55;16.95;;;;;;;;;;4976916;28;20439;-46
2021/04/27 07:20:54;;;;;;;22.63;14.45;;;;;;;;;;4976763;28;20059;-46
2021/04/27 07:23:20;;;;;;;21.77;13.57;;;;;;;;;;4976929;28;20023;-45
2021/04/27 07:25:49;;;;;;;26.48;16.52;;;;;;;;;;4976666;28;20033;-45
2021/04/27 07:28:15;;;;;;;23.80;15.02;;;;;;;;;;4972338;28;20109;-46
2021/04/27 07:30:41;;;;;;;24.13;13.85;;;;;;;;;;4967029;28;20098;-48
2021/04/27 07:33:07;;;;;;;28.63;16.00;;;;;;;;;;4965504;28;20087;-46
2021/04/27 07:35:34;;;;;;;18.83;13.50;;;;;;;;;;4949818;28;20043;-46
2021/04/27 07:38:01;;;;;;;19.45;13.27;;;;;;;;;;4966564;28;20023;-47
2021/04/27 07:40:28;;;;;;;27.50;16.35;;;;;;;;;;4965194;28;20042;-48
2021/04/27 07:42:54;;;;;;;35.13;20.70;;;;;;;;;;4967008;28;20493;-47
2021/04/27 07:45:20;;;;;;;20.45;13.20;;;;;;;;;;4962031;28;20118;-47
2021/04/27 07:47:46;;;;;;;21.45;13.30;;;;;;;;;;4957138;28;20062;-48
2021/04/27 07:50:15;;;;;;;40.95;25.13;;;;;;;;;;4957180;29;20027;-48
2021/04/27 07:52:41;;;;;;;26.95;18.33;;;;;;;;;;4957293;28;20023;-49
2021/04/27 07:55:08;;;;;;;24.98;14.52;;;;;;;;;;4957133;28;20039;-48
2021/04/27 07:57:36;;;;;;;42.03;22.50;;;;;;;;;;4957152;29;20380;-49
2021/04/27 08:00:04;;;;;;;60.53;29.30;;;;;;;;;;4957045;28;20591;-49
2021/04/27 08:02:30;;;;;;;38.38;22.65;;;;;;;;;;4956884;29;20085;-49
2021/04/27 08:04:56;;;;;;;27.48;16.08;;;;;;;;;;4939459;29;20395;-51
2021/04/27 08:07:22;;;;;;;22.85;15.68;;;;;;;;;;4956624;29;20125;-49
2021/04/27 08:09:48;;;;;;;30.48;18.02;;;;;;;;;;4957280;29;20058;-49
2021/04/27 08:12:14;;;;;;;39.97;22.02;;;;;;;;;;4956831;29;20098;-48
2021/04/27 08:14:40;;;;;;;26.95;16.33;;;;;;;;;;4956638;29;20062;-49
2021/04/27 08:17:08;;;;;;;24.85;15.73;;;;;;;;;;4956379;28;20032;-48
2021/04/27 08:19:35;;;;;;;82.13;35.13;;;;;;;;;;4956623;29;20126;-49
2021/04/27 08:22:01;;;;;;;28.60;17.67;;;;;;;;;;4956844;29;20472;-49
2021/04/27 08:24:27;;;;;;;38.15;21.58;;;;;;;;;;4956864;28;20031;-49
2021/04/27 08:26:54;;;;;;;35.63;20.63;;;;;;;;;;4956372;28;20098;-49
2021/04/27 08:29:20;;;;;;;30.33;18.42;;;;;;;;;;4956326;29;20034;-49
2021/04/27 08:31:48;;;;;;;23.60;14.13;;;;;;;;;;4956440;29;20019;-45
2021/04/27 08:34:14;;;;;;;34.60;20.58;;;;;;;;;;4956271;29;20019;-49
2021/04/27 08:36:40;;;;;;;28.30;16.13;;;;;;;;;;4956137;29;20115;-49
2021/04/27 08:39:06;;;;;;;25.83;15.70;;;;;;;;;;4956396;29;20467;-49
2021/04/27 08:41:33;;;;;;;20.00;13.05;;;;;;;;;;4956393;29;20031;-48
2021/04/27 08:43:59;;;;;;;29.02;15.73;;;;;;;;;;4956253;29;20023;-49
2021/04/27 08:46:25;;;;;;;17.92;12.55;;;;;;;;;;4956308;28;20432;-49
2021/04/27 08:48:52;;;;;;;25.67;16.73;;;;;;;;;;4956117;29;20039;-49
2021/04/27 08:51:18;;;;;;;20.67;14.30;;;;;;;;;;4956090;29;20042;-48
2021/04/27 08:53:45;;;;;;;23.48;15.45;;;;;;;;;;4956180;29;20038;-49
2021/04/27 08:56:14;;;;;;;30.60;18.63;;;;;;;;;;4955796;29;20159;-49
2021/04/27 08:58:40;;;;;;;22.15;15.52;;;;;;;;;;4956084;28;20026;-49
2021/04/27 09:01:07;;;;;;;24.45;14.15;;;;;;;;;;4956020;28;20023;-48
2021/04/27 09:03:42;;;;;;;22.70;14.90;;;;;;;;;;4955929;29;20118;-50
2021/04/27 09:06:21;;;;;;;23.98;14.70;;;;;;;;;;4955660;28;20062;-49
2021/04/27 09:08:48;;;;;;;23.42;13.90;;;;;;;;;;4955693;29;20023;-50
2021/04/27 09:11:26;;;;;;;22.27;14.15;;;;;;;;;;4955519;29;20027;-48
2021/04/27 09:14:07;;;;;;;21.30;15.00;;;;;;;;;;4955741;28;20023;-46
2021/04/27 09:16:33;;;;;;;19.80;15.10;;;;;;;;;;4955663;29;20051;-49
2021/04/27 09:19:00;;;;;;;25.83;16.55;;;;;;;;;;4955618;29;20031;-50
2021/04/27 09:21:35;;;;;;;27.20;17.15;;;;;;;;;;4955564;29;20027;-49
2021/04/27 09:24:21;;;;;;;22.77;14.82;;;;;;;;;;4955529;29;20031;-50
2021/04/27 09:26:52;;;;;;;21.00;14.90;;;;;;;;;;4955467;29;20488;-48
2021/04/27 09:29:35;;;;;;;26.00;17.50;;;;;;;;;;4954707;29;20074;-49
2021/04/27 09:32:01;;;;;;;21.90;14.77;;;;;;;;;;4955449;29;20027;-50
2021/04/27 09:34:32;;;;;;;24.45;15.43;;;;;;;;;;4955271;29;20109;-49
2021/04/27 09:37:09;;;;;;;26.40;16.38;;;;;;;;;;4955460;28;20023;-49
2021/04/27 09:39:50;;;;;;;25.15;16.95;;;;;;;;;;4955270;29;20038;-50
2021/04/27 09:42:16;;;;;;;29.90;16.50;;;;;;;;;;4937846;29;20443;-48
2021/04/27 09:44:44;;;;;;;25.20;16.30;;;;;;;;;;4955208;28;20491;-50
2021/04/27 09:47:11;;;;;;;21.63;15.68;;;;;;;;;;4955081;29;20094;-50
2021/04/27 09:49:37;;;;;;;25.73;17.50;;;;;;;;;;4955158;28;20030;-50
2021/04/27 09:52:11;;;;;;;30.00;18.23;;;;;;;;;;4955182;28;20030;-50
2021/04/27 09:54:56;;;;;;;23.77;14.07;;;;;;;;;;4954967;29;20094;-49
2021/04/27 09:57:26;;;;;;;22.90;15.55;;;;;;;;;;4955236;29;20118;-50
2021/04/27 09:59:52;;;;;;;19.10;15.13;;;;;;;;;;4955391;29;20094;-49
2021/04/27 10:02:20;;;;;;;21.98;15.35;;;;;;;;;;4955337;29;20462;-50
2021/04/27 10:04:46;;;;;;;19.58;13.48;;;;;;;;;;4955179;28;20049;-49
2021/04/27 10:07:16;;;;;;;22.45;16.23;;;;;;;;;;4955004;28;20070;-50
2021/04/27 10:09:43;;;;;;;25.88;14.30;;;;;;;;;;4955268;28;20031;-50
2021/04/27 10:12:09;;;;;;;20.83;15.15;;;;;;;;;;4955206;28;20475;-50
2021/04/27 10:14:36;;;;;;;23.05;16.60;;;;;;;;;;4955012;29;20579;-48
2021/04/27 10:17:03;;;;;;;18.98;14.25;;;;;;;;;;4955273;28;20047;-48
2021/04/27 10:19:29;;;;;;;18.42;14.35;;;;;;;;;;4955113;29;20515;-48
2021/04/27 10:21:55;;;;;;;16.83;13.13;;;;;;;;;;4954804;28;20031;-47
2021/04/27 10:24:26;;;;;;;21.25;13.10;;;;;;;;;;4955145;29;20030;-49
2021/04/27 10:26:52;;;;;;;18.75;13.73;;;;;;;;;;4955034;29;20611;-49
2021/04/27 10:29:22;;;;;;;34.15;18.95;;;;;;;;;;4954848;29;20064;-49
2021/04/27 10:32:08;;;;;;;22.55;14.88;;;;;;;;;;4955201;29;20057;-50
2021/04/27 10:34:35;;;;;;;19.73;14.55;;;;;;;;;;4954969;28;20087;-49
2021/04/27 10:37:01;;;;;;;23.15;14.50;;;;;;;;;;4955029;29;20027;-49
2021/04/27 10:39:42;;;;;;;17.60;13.95;;;;;;;;;;4955157;29;20034;-49
2021/04/27 10:42:18;;;;;;;18.80;12.57;;;;;;;;;;4958228;29;20027;-49
2021/04/27 10:44:54;;;;;;;15.38;11.23;;;;;;;;;;4958230;29;20090;-47
2021/04/27 10:47:21;;;;;;;18.17;12.70;;;;;;;;;;4958675;29;20547;-47
2021/04/27 10:49:47;;;;;;;17.77;11.68;;;;;;;;;;4958356;29;20031;-46
2021/04/27 10:52:40;;;;;;;17.50;12.02;;;;;;;;;;4958176;29;20019;-49
2021/04/27 10:55:25;;;;;;;18.90;12.35;;;;;;;;;;4954734;29;20051;-50
2021/04/27 10:57:51;;;;;;;17.88;11.88;;;;;;;;;;4958238;28;20044;-47
2021/04/27 11:00:36;;;;;;;18.48;12.20;;;;;;;;;;4958302;29;20449;-50
2021/04/27 11:03:15;;;;;;;19.40;12.30;;;;;;;;;;4958276;28;20062;-50
2021/04/27 11:05:52;;;;;;;17.30;12.90;;;;;;;;;;4957724;29;20046;-48
2021/04/27 11:08:18;;;;;;;18.63;12.60;;;;;;;;;;4957966;29;20028;-50
2021/04/27 11:10:48;;;;;;;18.92;12.90;;;;;;;;;;4958173;29;20030;-48
2021/04/27 11:13:14;;;;;;;18.33;12.82;;;;;;;;;;4957827;29;20023;-48
2021/04/27 11:15:45;;;;;;;21.15;13.90;;;;;;;;;;4958161;29;20035;-50
2021/04/27 11:18:12;;;;;;;16.67;12.75;;;;;;;;;;4957779;29;20027;-50
2021/04/27 11:20:48;;;;;;;22.20;12.82;;;;;;;;;;4957916;29;20034;-50
2021/04/27 11:23:34;;;;;;;19.60;13.60;;;;;;;;;;4957540;28;20023;-50
2021/04/27 11:26:00;;;;;;;16.50;12.70;;;;;;;;;;4957728;29;20042;-47
2021/04/27 11:28:45;;;;;;;20.80;13.00;;;;;;;;;;4957740;29;20015;-49
2021/04/27 11:31:17;;;;;;;16.70;11.57;;;;;;;;;;4957493;28;20373;-50
2021/04/27 11:33:43;;;;;;;19.92;12.80;;;;;;;;;;4957895;29;20384;-50
2021/04/27 11:36:09;;;;;;;19.90;13.68;;;;;;;;;;4957781;28;20035;-49
2021/04/27 11:38:35;;;;;;;18.33;13.25;;;;;;;;;;4957663;28;20027;-50
2021/04/27 11:41:02;;;;;;;21.50;13.02;;;;;;;;;;4957436;28;20110;-48
2021/04/27 11:43:28;;;;;;;18.73;12.50;;;;;;;;;;4957258;29;20030;-49
2021/04/27 11:45:54;;;;;;;17.92;11.95;;;;;;;;;;4957080;28;20119;-49
2021/04/27 11:48:21;;;;;;;16.17;11.60;;;;;;;;;;4957433;29;20035;-48
2021/04/27 11:50:48;;;;;;;18.63;12.82;;;;;;;;;;4957385;29;20027;-50
2021/04/27 11:53:16;;;;;;;17.50;13.13;;;;;;;;;;4956529;28;20110;-51
2021/04/27 11:55:49;;;;;;;22.25;14.02;;;;;;;;;;4956943;29;20049;-48
2021/04/27 11:58:17;;;;;;;21.92;14.18;;;;;;;;;;4956957;29;20055;-48
2021/04/27 12:00:49;;;;;;;18.13;12.85;;;;;;;;;;4956931;29;20523;-48
2021/04/27 12:03:25;;;;;;;20.33;14.10;;;;;;;;;;4957185;29;20027;-48
2021/04/27 12:05:56;;;;;;;21.38;14.15;;;;;;;;;;4956831;29;20027;-50
2021/04/27 12:08:26;;;;;;;19.37;14.03;;;;;;;;;;4956942;29;20110;-50
2021/04/27 12:11:11;;;;;;;19.27;14.02;;;;;;;;;;4956715;29;20280;-50
2021/04/27 12:13:38;;;;;;;19.88;12.90;;;;;;;;;;4956527;28;20030;-50
2021/04/27 12:16:04;;;;;;;17.77;12.35;;;;;;;;;;4956635;29;20032;-48
2021/04/27 12:18:30;;;;;;;25.02;13.75;;;;;;;;;;4960916;28;20042;-48
2021/04/27 12:20:56;;;;;;;22.00;14.13;;;;;;;;;;4975600;28;20027;-47
2021/04/27 12:23:23;;;;;;;40.55;25.90;;;;;;;;;;4975712;28;20109;-47
2021/04/27 12:25:49;;;;;;;25.42;17.20;;;;;;;;;;4975754;28;20030;-46
2021/04/27 12:28:15;;;;;;;19.92;13.95;;;;;;;;;;4975561;28;20027;-46
2021/04/27 12:30:44;;;;;;;34.67;22.40;;;;;;;;;;4975962;28;20065;-47
2021/04/27 12:33:16;;;;;;;32.55;21.13;;;;;;;;;;4975500;28;20026;-46
2021/04/27 12:35:42;;;;;;;44.33;26.67;;;;;;;;;;4975423;28;20498;-45
2021/04/27 12:38:18;;;;;;;76.43;43.95;;;;;;;;;;4975528;28;20027;-47
2021/04/27 12:40:50;;;;;;;24.88;16.85;;;;;;;;;;4976053;28;20402;-45
2021/04/27 12:43:19;;;;;;;43.90;28.70;;;;;;;;;;4975432;28;20022;-46
2021/04/27 12:45:49;;;;;;;44.83;28.10;;;;;;;;;;4975434;28;20612;-46
2021/04/27 12:48:16;;;;;;;49.80;32.22;;;;;;;;;;4975397;28;20499;-47
2021/04/27 12:51:00;;;;;;;24.15;16.90;;;;;;;;;;4975111;28;20035;-47
2021/04/27 12:53:38;;;;;;;94.97;65.90;;;;;;;;;;4975290;28;20031;-48
2021/04/27 12:56:09;;;;;;;42.13;22.60;;;;;;;;;;4975053;28;20089;-48
2021/04/27 12:58:35;;;;;;;40.17;24.90;;;;;;;;;;4974975;28;20387;-49
2021/04/27 13:01:03;;;;;;;55.88;33.97;;;;;;;;;;4974945;28;20483;-47
2021/04/27 13:03:45;;;;;;;30.83;19.38;;;;;;;;;;4974725;28;20447;-47
2021/04/27 13:06:24;;;;;;;40.40;26.83;;;;;;;;;;4957298;28;20566;-47
2021/04/27 13:09:10;;;;;;;31.02;21.15;;;;;;;;;;4974582;28;20018;-47
2021/04/27 13:11:37;;;;;;;26.40;18.95;;;;;;;;;;4964939;28;20042;-47
2021/04/27 13:14:18;;;;;;;33.05;21.75;;;;;;;;;;4974659;28;20150;-46
2021/04/27 13:16:45;;;;;;;39.65;26.45;;;;;;;;;;4974663;28;20043;-47
2021/04/27 13:19:12;;;;;;;34.03;21.38;;;;;;;;;;4975028;28;20030;-46
2021/04/27 13:21:42;;;;;;;65.35;35.85;;;;;;;;;;4974617;28;20058;-46
2021/04/27 13:24:14;;;;;;;38.60;24.10;;;;;;;;;;4974681;28;20109;-46
2021/04/27 13:26:40;;;;;;;38.20;23.10;;;;;;;;;;4974735;28;20023;-46
2021/04/27 13:29:07;;;;;;;63.85;32.10;;;;;;;;;;4974639;28;20468;-44
2021/04/27 13:31:33;;;;;;;57.03;28.75;;;;;;;;;;4974662;28;20034;-48
2021/04/27 13:33:59;;;;;;;45.13;24.48;;;;;;;;;;4974519;28;20054;-44
2021/04/27 13:36:25;;;;;;;62.53;36.15;;;;;;;;;;4974350;28;20476;-46
2021/04/27 13:38:52;;;;;;;69.47;35.33;;;;;;;;;;4974425;28;20541;-47
2021/04/27 13:41:18;;;;;;;40.28;22.05;;;;;;;;;;4974346;28;20102;-46
2021/04/27 13:43:48;;;;;;;32.55;21.50;;;;;;;;;;4974290;28;20026;-47
2021/04/27 13:46:21;;;;;;;28.65;20.02;;;;;;;;;;4974487;28;20550;-47
2021/04/27 13:48:47;;;;;;;24.83;17.20;;;;;;;;;;4962119;28;20038;-47
2021/04/27 13:51:15;;;;;;;31.05;20.08;;;;;;;;;;4945195;28;20027;-48
2021/04/27 13:53:41;;;;;;;30.48;19.90;;;;;;;;;;4944448;28;20353;-46
2021/04/27 13:56:11;;;;;;;50.42;25.40;;;;;;;;;;4944108;28;20031;-46
2021/04/27 13:58:37;;;;;;;72.35;39.10;;;;;;;;;;4944560;28;20027;-46
2021/04/27 14:01:04;;;;;;;52.22;32.35;;;;;;;;;;4944450;28;20097;-46
2021/04/27 14:03:30;;;;;;;67.40;39.10;;;;;;;;;;4945465;28;20030;-46
2021/04/27 14:05:56;;;;;;;42.17;26.27;;;;;;;;;;4944465;28;20066;-48
2021/04/27 14:08:22;;;;;;;57.63;33.65;;;;;;;;;;4944954;28;20018;-46
2021/04/27 14:10:49;;;;;;;77.55;41.65;;;;;;;;;;4944350;28;20031;-46
2021/04/27 14:13:16;;;;;;;66.30;36.55;;;;;;;;;;4944204;28;20488;-46
2021/04/27 14:15:43;;;;;;;43.72;27.77;;;;;;;;;;4945722;28;20132;-46
2021/04/27 14:18:10;;;;;;;38.83;25.23;;;;;;;;;;4948643;28;20059;-46
2021/04/27 14:20:37;;;;;;;45.38;27.00;;;;;;;;;;4948039;28;20577;-46
2021/04/27 14:23:07;;;;;;;60.75;37.15;;;;;;;;;;4947834;28;20022;-47
2021/04/27 14:25:33;;;;;;;30.63;20.88;;;;;;;;;;4948046;28;20031;-47